AFR76LX LFPG-LIRQ
Flight info
| Callsign | AFR76LX |
|---|---|
| Flight time | N/A |
| Altitude | 35000 |
| Route | LANVI DCT DEVDI DCT ODINA DCT SRN DCT ROBAS DCT OSBUL/N0350F190 L153 BEROK Y138 GAPMI |
| Aircraft | A319/M-SBDE2E3GIRWXY/LB1 |
Departure
| Time | N/A |
|---|---|
| Airport | Charles de Gaulle International Airport (LFPG) |
Arrival
| Time | 2026-05-06 14:30 |
|---|---|
| Airport | Florence Airport, Peretola (LIRQ) |
| Time | Latitude | Longitude | Altitude | Speed | Heading |
|---|---|---|---|---|---|
| 2026-05-06 14:28 | 43.77429 | 11.14939 | 1024 ft | 151 kts | 49° |
| 2026-05-06 14:28 | 43.78117 | 11.16031 | 873 ft | 149 kts | 50° |
| 2026-05-06 14:29 | 43.78800 | 11.17094 | 695 ft | 147 kts | 47° |
| 2026-05-06 14:29 | 43.79475 | 11.18155 | 502 ft | 145 kts | 48° |
| 2026-05-06 14:29 | 43.80141 | 11.19183 | 292 ft | 143 kts | 43° |
| 2026-05-06 14:29 | 43.80801 | 11.20203 | 136 ft | 136 kts | 44° |
| 2026-05-06 14:30 | 43.81225 | 11.20853 | 132 ft | 37 kts | 48° |
| 2026-05-06 14:30 | 43.81310 | 11.20954 | 133 ft | 4 kts | 252° |
| 2026-05-06 14:30 | 43.81268 | 11.20906 | 133 ft | 12 kts | 222° |
| 2026-05-06 14:30 | 43.81181 | 11.20778 | 130 ft | 24 kts | 227° |
| 2026-05-06 14:31 | 43.81063 | 11.20601 | 125 ft | 25 kts | 227° |
| 2026-05-06 14:31 | 43.80944 | 11.20415 | 129 ft | 25 kts | 230° |
| 2026-05-06 14:31 | 43.80831 | 11.20240 | 125 ft | 24 kts | 228° |
| 2026-05-06 14:31 | 43.80724 | 11.20074 | 133 ft | 23 kts | 227° |
| 2026-05-06 14:32 | 43.80576 | 11.19999 | 133 ft | 23 kts | 193° |
| 2026-05-06 14:32 | 43.80436 | 11.19956 | 132 ft | 10 kts | 186° |
| 2026-05-06 14:32 | 43.80372 | 11.19941 | 131 ft | 10 kts | 150° |
| 2026-05-06 14:32 | 43.80355 | 11.20027 | 128 ft | 7 kts | 101° |
| 2026-05-06 14:33 | 43.80338 | 11.20062 | 125 ft | 5 kts | 127° |
| 2026-05-06 14:33 | 43.80324 | 11.20086 | 123 ft | 2 kts | 130° |
| 2026-05-06 14:33 | 43.80322 | 11.20088 | 124 ft | 0 kts | 130° |